Time;durP1;ratioP1;P1;durP2;ratioP2;P2;SDS_P1;SDS_P2;PMS_P1;PMS_P2;Temp;Humidity;BMP_temperature;BMP_pressure;BME280_temperature;BME280_humidity;BME280_pressure;Samples;Min_cycle;Max_cycle;Signal;HPM_P1;HPM_P2
2022/11/01 00:01:06;;;;;;;26.70;11.30;;;;;;;1.61;68.80;100171.58;106172;1309;125591;-53
2022/11/01 00:03:33;;;;;;;20.50;11.10;;;;;;;1.60;68.84;100166.29;106160;1305;22161;-53
2022/11/01 00:06:00;;;;;;;21.40;10.80;;;;;;;1.57;68.91;100160.82;106260;1309;22127;-53
2022/11/01 00:08:27;;;;;;;25.50;12.00;;;;;;;1.60;69.04;100166.61;106085;1309;139831;-53
2022/11/01 00:11:00;;;;;;;;;;;;;;;1.59;69.17;100170.08;106326;1309;22367;-53
2022/11/01 00:13:27;;;;;;;24.00;11.50;;;;;;;1.56;69.35;100170.02;106141;1309;126154;-53
2022/11/01 00:15:53;;;;;;;;;;;;;;;1.55;69.41;100166.30;106360;1308;22348;-53
2022/11/01 00:18:20;;;;;;;25.60;11.30;;;;;;;1.53;69.44;100162.19;106141;1310;22220;-53
2022/11/01 00:20:47;;;;;;;33.40;16.80;;;;;;;1.50;69.50;100159.15;106153;1308;138187;-53
2022/11/01 00:23:14;;;;;;;30.90;16.10;;;;;;;1.49;69.50;100158.40;106302;1308;23052;-53
2022/11/01 00:25:40;;;;;;;33.80;16.50;;;;;;;1.45;69.63;100156.29;106187;1308;138672;-53
2022/11/01 00:28:07;;;;;;;26.40;14.10;;;;;;;1.50;69.83;100165.02;106259;1308;22317;-53
2022/11/01 00:30:40;;;;;;;31.90;15.50;;;;;;;1.50;69.95;100160.39;106309;1303;23536;-53
2022/11/01 00:33:07;;;;;;;27.60;14.70;;;;;;;1.50;69.93;100157.75;106127;1308;139782;-53
2022/11/01 00:35:37;;;;;;;41.00;14.90;;;;;;;1.49;70.06;100157.89;106279;1302;23321;-53
2022/11/01 00:38:05;;;;;;;27.40;12.30;;;;;;;1.50;70.23;100159.86;106136;1310;138330;-53
2022/11/01 00:40:31;;;;;;;20.90;11.00;;;;;;;1.52;70.37;100157.63;106268;1308;22186;-53
2022/11/01 00:42:58;;;;;;;25.80;12.20;;;;;;;1.56;70.35;100162.77;106084;1300;139797;-54
2022/11/01 00:45:25;;;;;;;23.70;12.40;;;;;;;1.60;70.35;100165.83;106189;1309;22900;-52
2022/11/01 00:47:52;;;;;;;24.50;11.30;;;;;;;1.63;70.25;100165.62;106282;1309;22309;-53
2022/11/01 00:50:19;;;;;;;21.60;10.50;;;;;;;1.65;70.27;100168.55;106109;1309;137641;-53
2022/11/01 00:52:45;;;;;;;19.30;10.10;;;;;;;1.67;70.39;100172.80;106293;1302;22171;-53
2022/11/01 00:55:12;;;;;;;;;;;;;;;1.69;70.27;100170.81;106145;1293;137945;-53
2022/11/01 00:57:39;;;;;;;16.30;8.80;;;;;;;1.71;70.30;100169.48;106339;1308;22201;-53
2022/11/01 01:00:06;;;;;;;20.40;8.00;;;;;;;1.72;70.43;100168.78;106164;1308;22165;-54
2022/11/01 01:02:33;;;;;;;18.20;8.20;;;;;;;1.75;70.23;100169.35;106163;1297;137964;-53
2022/11/01 01:05:00;;;;;;;18.10;8.40;;;;;;;1.76;70.35;100166.52;106139;1311;23249;-53
2022/11/01 01:07:27;;;;;;;19.30;7.90;;;;;;;1.77;70.42;100167.24;106037;1311;137615;-53
2022/11/01 01:09:53;;;;;;;34.10;9.50;;;;;;;1.79;70.46;100166.19;106141;1302;23269;-53
2022/11/01 01:12:20;;;;;;;14.50;7.20;;;;;;;1.82;70.36;100163.74;106282;1309;22996;-53
2022/11/01 01:14:47;;;;;;;18.00;7.30;;;;;;;1.80;70.31;100157.48;106180;1302;138192;-53
2022/11/01 01:17:14;;;;;;;12.70;6.60;;;;;;;1.86;70.34;100163.23;102379;1295;22541;-51
2022/11/01 01:19:40;;;;;;;15.50;7.70;;;;;;;1.88;70.36;100162.59;101604;1293;138393;-51
2022/11/01 01:22:07;;;;;;;14.40;7.20;;;;;;;1.90;70.45;100159.80;101692;1304;22864;-51
2022/11/01 01:24:34;;;;;;;15.30;7.20;;;;;;;1.92;70.42;100158.52;101624;1302;22489;-51
2022/11/01 01:27:02;;;;;;;15.70;7.20;;;;;;;1.92;70.53;100159.17;101573;1315;139842;-51
2022/11/01 01:29:29;;;;;;;12.80;6.90;;;;;;;1.91;70.66;100159.98;101632;1296;22570;-51
2022/11/01 01:31:55;;;;;;;;;;;;;;;1.91;70.65;100165.48;101556;1294;137425;-50
2022/11/01 01:34:22;;;;;;;12.80;6.50;;;;;;;1.90;70.65;100164.51;101722;1316;24395;-51
2022/11/01 01:36:49;;;;;;;14.60;6.50;;;;;;;1.88;70.77;100164.86;101713;1295;26533;-51
2022/11/01 01:39:16;;;;;;;12.60;6.40;;;;;;;1.88;70.75;100162.83;101641;1302;138162;-51
2022/11/01 01:41:55;;;;;;;;;;;;;;;1.87;70.68;100162.59;101815;1299;23303;-51
2022/11/01 01:44:40;;;;;;;12.80;6.40;;;;;;;1.85;70.52;100158.00;101586;1297;124284;-51
2022/11/01 01:47:08;;;;;;;15.30;6.20;;;;;;;1.81;70.65;100152.20;101901;1291;22516;-51
2022/11/01 01:49:34;;;;;;;14.40;6.50;;;;;;;1.79;70.80;100156.27;101815;1294;137660;-52
2022/11/01 01:52:07;;;;;;;13.40;6.30;;;;;;;1.77;70.80;100155.25;101870;1309;24910;-51
2022/11/01 01:54:34;;;;;;;14.10;6.60;;;;;;;1.75;70.84;100158.32;101839;1313;22689;-51
2022/11/01 01:57:01;;;;;;;14.00;6.20;;;;;;;1.74;70.95;100160.16;101679;1301;138002;-51
2022/11/01 01:59:27;;;;;;;13.20;6.00;;;;;;;1.72;71.16;100164.90;101706;1316;24296;-51
2022/11/01 02:01:54;;;;;;;;;;;;;;;1.71;71.08;100159.30;101667;1312;137651;-52
2022/11/01 02:04:24;;;;;;;9.30;4.70;;;;;;;1.70;71.12;100161.19;101868;1302;22485;-52
2022/11/01 02:06:51;;;;;;;10.40;5.70;;;;;;;1.67;71.21;100164.70;101715;1316;25306;-52
2022/11/01 02:09:18;;;;;;;;;;;;;;;1.68;71.30;100167.94;101652;1299;138206;-52
2022/11/01 02:11:45;;;;;;;12.80;5.10;;;;;;;1.68;71.39;100171.59;101740;1310;22940;-52
2022/11/01 02:14:12;;;;;;;;;;;;;;;1.68;71.47;100168.53;101667;1295;138722;-52
2022/11/01 02:16:46;;;;;;;12.20;4.70;;;;;;;1.70;71.57;100173.85;101827;1301;24347;-52
2022/11/01 02:19:31;;;;;;;11.60;5.80;;;;;;;1.71;71.65;100177.20;101791;1304;139184;-53
2022/11/01 02:22:25;;;;;;;14.10;5.30;;;;;;;1.73;71.63;100175.54;101921;1310;25326;-51
2022/11/01 02:25:11;;;;;;;9.60;4.40;;;;;;;1.72;71.60;100169.99;101803;1306;25667;-51
2022/11/01 02:27:51;;;;;;;10.30;4.80;;;;;;;1.72;71.60;100171.98;101735;1293;24416;-50
2022/11/01 02:30:19;;;;;;;13.20;5.80;;;;;;;1.71;71.61;100167.83;105996;1304;22324;-52
2022/11/01 02:32:45;;;;;;;11.70;5.30;;;;;;;1.68;71.75;100171.41;106297;1308;138479;-53
2022/11/01 02:35:25;;;;;;;9.10;4.80;;;;;;;1.59;71.87;100165.94;106363;1307;22219;-54
2022/11/01 02:37:58;;;;;;;14.60;5.10;;;;;;;1.63;71.92;100178.55;106072;1294;137697;-54
2022/11/01 02:40:33;;;;;;;13.30;5.40;;;;;;;1.61;72.07;100181.83;106296;1304;22120;-54
2022/11/01 02:43:02;;;;;;;13.50;5.30;;;;;;;1.58;72.15;100181.27;106189;1300;23393;-54
2022/11/01 02:45:33;;;;;;;10.20;4.80;;;;;;;1.55;72.10;100181.39;106269;1308;22140;-52
2022/11/01 02:48:00;;;;;;;11.00;5.40;;;;;;;1.54;72.16;100181.00;106156;1309;22248;-53
2022/11/01 02:50:32;;;;;;;14.60;6.10;;;;;;;1.52;72.27;100185.92;106066;1309;138357;-53
2022/11/01 02:52:59;;;;;;;14.60;5.00;;;;;;;1.52;72.30;100189.18;106184;1308;22140;-53
2022/11/01 02:55:29;;;;;;;10.60;4.90;;;;;;;1.51;72.41;100191.27;106146;1309;138366;-52
2022/11/01 02:58:08;;;;;;;11.90;5.90;;;;;;;1.46;72.37;100189.91;106307;1308;22189;-53
2022/11/01 03:00:35;;;;;;;11.60;5.60;;;;;;;1.49;72.37;100200.45;106135;1303;22152;-53
2022/11/01 03:03:06;;;;;;;13.10;5.90;;;;;;;1.49;72.56;100201.02;106164;1302;138853;-53
2022/11/01 03:05:39;;;;;;;12.70;5.30;;;;;;;1.49;72.60;100200.15;106292;1301;22127;-53
2022/11/01 03:08:08;;;;;;;16.50;6.20;;;;;;;1.49;72.59;100199.38;106233;1309;137385;-54
2022/11/01 03:10:40;;;;;;;13.50;5.90;;;;;;;1.50;72.64;100194.16;106297;1306;22276;-54
2022/11/01 03:13:35;;;;;;;11.60;4.60;;;;;;;1.51;72.82;100193.17;106028;1303;137667;-54
2022/11/01 03:16:21;;;;;;;12.00;5.40;;;;;;;1.53;72.71;100195.24;105973;1312;22230;-54
2022/11/01 03:19:00;;;;;;;11.60;5.50;;;;;;;1.55;72.79;100194.20;106304;1303;23046;-54
2022/11/01 03:21:28;;;;;;;15.60;6.20;;;;;;;1.54;72.72;100196.08;106064;1310;137718;-53
2022/11/01 03:24:05;;;;;;;11.30;6.10;;;;;;;1.56;72.71;100197.98;106155;1310;22162;-54
2022/11/01 03:26:32;;;;;;;10.00;5.30;;;;;;;1.56;72.91;100193.02;105965;1309;138061;-53
2022/11/01 03:29:02;;;;;;;9.70;4.70;;;;;;;1.58;72.92;100190.98;106068;1310;22353;-53
2022/11/01 03:31:30;;;;;;;12.80;5.30;;;;;;;1.59;72.93;100187.58;105927;1310;138131;-52
2022/11/01 03:33:59;;;;;;;10.30;4.50;;;;;;;1.60;72.97;100187.60;106042;1304;22162;-53
2022/11/01 03:36:30;;;;;;;9.10;5.10;;;;;;;1.62;72.99;100187.59;106173;1286;22167;-53
2022/11/01 03:39:00;;;;;;;8.50;4.80;;;;;;;1.63;73.01;100182.98;106042;1310;137956;-53
2022/11/01 03:41:28;;;;;;;11.20;4.90;;;;;;;1.65;73.00;100185.76;106148;1310;22313;-53
2022/11/01 03:43:55;;;;;;;8.80;4.40;;;;;;;1.66;73.09;100185.60;106072;1303;138330;-53
2022/11/01 03:46:21;;;;;;;;;;;;;;;1.68;73.07;100185.59;106188;1303;22369;-53
2022/11/01 03:48:48;;;;;;;9.90;4.40;;;;;;;1.70;73.14;100181.65;106313;1309;22201;-53
2022/11/01 03:51:15;;;;;;;8.40;4.30;;;;;;;1.71;73.05;100181.34;105976;1311;137777;-53
2022/11/01 03:53:41;;;;;;;12.50;5.60;;;;;;;1.72;73.08;100182.77;106254;1310;22422;-53
2022/11/01 03:56:08;;;;;;;;;;;;;;;1.73;73.01;100188.76;106073;1309;138203;-53
2022/11/01 03:58:43;;;;;;;13.50;5.60;;;;;;;1.73;72.93;100193.70;106386;1308;22326;-53
2022/11/01 04:01:12;;;;;;;11.10;6.20;;;;;;;1.73;72.90;100193.05;106232;1307;137445;-53
2022/11/01 04:03:39;;;;;;;13.00;6.30;;;;;;;1.72;72.89;100195.32;106341;1294;22132;-53
2022/11/01 04:06:06;;;;;;;12.80;6.30;;;;;;;1.67;72.85;100186.27;106384;1308;22892;-52
2022/11/01 04:08:32;;;;;;;10.30;5.50;;;;;;;1.70;72.92;100196.98;106243;1300;137055;-53
2022/11/01 04:10:59;;;;;;;11.00;5.30;;;;;;;1.69;73.03;100195.56;106407;1306;22145;-53
2022/11/01 04:13:26;;;;;;;12.10;4.60;;;;;;;1.69;72.87;100195.45;106280;1308;138043;-53
2022/11/01 04:21:24;;;;;;;13.60;6.40;;;;;;;1.71;73.10;100193.86;106293;1303;137891;-53
2022/11/01 04:23:51;;;;;;;12.60;5.50;;;;;;;1.71;73.14;100198.28;106174;1296;22268;-53
2022/11/01 04:26:18;;;;;;;;;;;;;;;1.71;73.08;100201.81;106256;1302;138908;-53
2022/11/01 04:28:55;;;;;;;15.00;5.50;;;;;;;1.72;73.20;100206.61;106376;1308;22122;-53
2022/11/01 04:31:23;;;;;;;;;;;;;;;1.71;73.07;100206.68;105592;1301;965980;-53
2022/11/01 04:35:19;;;;;;;12.00;6.30;;;;;;;1.71;73.03;100204.93;99665;1321;544970;-51
2022/11/01 04:37:45;;;;;;;10.30;5.70;;;;;;;1.68;73.04;100209.10;105855;1312;137437;-54
2022/11/01 04:40:13;;;;;;;14.70;6.90;;;;;;;1.66;73.08;100211.59;105768;1315;22137;-53
2022/11/01 04:42:39;;;;;;;13.80;5.90;;;;;;;1.65;73.26;100214.08;105687;1316;22236;-53
2022/11/01 04:45:07;;;;;;;;;;;;;;;1.63;73.49;100213.80;105622;1308;137316;-53
2022/11/01 04:47:33;;;;;;;12.60;6.00;;;;;;;1.61;73.52;100205.92;105739;1315;22346;-53
2022/11/01 04:50:00;;;;;;;;;;;;;;;1.60;73.66;100212.52;105190;1304;986953;-53
2022/11/01 04:52:27;;;;;;;11.50;6.10;;;;;;;1.60;73.73;100215.23;106083;1304;22276;-53
2022/11/01 04:54:53;;;;;;;11.70;6.20;;;;;;;1.57;73.82;100210.91;106127;1303;22238;-53
2022/11/01 04:57:23;;;;;;;13.80;6.40;;;;;;;1.63;73.83;100214.33;106050;1304;137336;-53
2022/11/01 04:59:50;;;;;;;17.10;7.90;;;;;;;1.65;74.01;100216.23;106011;1313;22139;-53
2022/11/01 05:02:18;;;;;;;15.70;8.30;;;;;;;1.63;74.00;100211.59;106004;1312;138116;-53
2022/11/01 05:04:45;;;;;;;14.10;9.00;;;;;;;1.68;74.10;100215.14;106009;1313;22226;-53
2022/11/01 05:07:12;;;;;;;;;;;;;;;1.69;73.99;100216.61;105974;1306;137810;-53
2022/11/01 05:09:39;;;;;;;18.80;9.20;;;;;;;1.66;74.15;100210.56;106100;1304;22171;-52
2022/11/01 05:12:06;;;;;;;18.20;11.70;;;;;;;1.70;74.16;100219.89;106002;1313;22117;-53
2022/11/01 05:14:33;;;;;;;23.80;13.30;;;;;;;1.71;74.08;100218.40;105823;1315;138155;-53
2022/11/01 05:16:59;;;;;;;18.60;10.40;;;;;;;1.71;74.14;100218.95;105922;1291;22230;-53
2022/11/01 05:19:26;;;;;;;16.80;9.90;;;;;;;1.71;74.18;100220.19;105938;1296;137748;-53
2022/11/01 05:21:53;;;;;;;20.40;10.30;;;;;;;1.70;74.27;100222.04;105917;1302;22324;-52
2022/11/01 05:24:20;;;;;;;18.70;10.00;;;;;;;1.71;74.18;100219.81;106006;1312;22299;-52
2022/11/01 05:26:48;;;;;;;18.90;10.00;;;;;;;1.71;74.44;100222.54;105886;1292;137277;-53
2022/11/01 05:29:15;;;;;;;18.60;10.20;;;;;;;1.71;74.63;100219.27;105873;1290;22177;-52
2022/11/01 05:31:58;;;;;;;15.60;8.40;;;;;;;1.73;74.70;100224.55;105862;1291;138353;-52
2022/11/01 05:34:24;;;;;;;;;;;;;;;1.74;74.77;100226.77;106010;1300;23200;-53
2022/11/01 05:36:52;;;;;;;12.30;6.80;;;;;;;1.74;74.97;100225.21;105976;1312;22192;-53
2022/11/01 05:39:19;;;;;;;22.60;7.20;;;;;;;1.75;75.11;100223.94;105906;1313;137627;-53
2022/11/01 05:41:45;;;;;;;12.90;7.50;;;;;;;1.78;75.27;100223.25;106538;1284;23022;-54
2022/11/01 05:44:12;;;;;;;14.30;7.70;;;;;;;1.82;75.47;100222.81;106546;1306;138153;-53
2022/11/01 05:46:39;;;;;;;15.00;7.70;;;;;;;1.87;75.46;100223.10;106532;1291;22180;-53
2022/11/01 05:49:06;;;;;;;14.40;7.60;;;;;;;1.91;75.48;100222.44;106399;1291;137179;-54
2022/11/01 05:51:32;;;;;;;22.40;9.00;;;;;;;1.96;75.53;100219.17;106515;1298;22192;-54
2022/11/01 05:53:59;;;;;;;18.10;9.60;;;;;;;2.00;75.62;100217.72;106523;1299;22148;-54
2022/11/01 05:56:26;;;;;;;19.50;10.20;;;;;;;2.06;75.57;100218.53;106557;1306;137077;-54
2022/11/01 05:58:53;;;;;;;34.30;12.60;;;;;;;2.14;75.66;100221.78;106444;1300;23048;-52
2022/11/01 06:01:20;;;;;;;19.30;10.00;;;;;;;2.20;75.74;100217.42;106443;1297;137103;-53
2022/11/01 06:03:50;;;;;;;17.90;8.80;;;;;;;2.28;75.63;100217.91;106495;1293;22839;-55
2022/11/01 06:06:16;;;;;;;14.50;8.00;;;;;;;2.34;75.49;100223.07;106446;1306;22816;-54
2022/11/01 06:08:43;;;;;;;;;;;;;;;2.40;75.33;100224.11;106387;1300;137698;-53
2022/11/01 06:11:11;;;;;;;15.60;6.90;;;;;;;2.45;75.42;100225.20;106538;1291;22212;-54
2022/11/01 06:13:37;;;;;;;19.20;7.40;;;;;;;2.51;75.43;100230.20;106387;1298;138414;-54
2022/11/01 06:16:05;;;;;;;13.80;6.80;;;;;;;2.59;75.30;100231.49;104747;1299;24285;-60
2022/11/01 06:18:32;;;;;;;12.30;7.40;;;;;;;2.66;75.33;100234.11;101874;1298;26451;-59
2022/11/01 06:20:58;;;;;;;;;;;;;;;2.75;75.24;100233.91;101863;1292;137478;-60
2022/11/01 06:23:25;;;;;;;11.00;5.90;;;;;;;2.82;75.43;100229.98;101975;1301;23598;-60
2022/11/01 06:26:02;;;;;;;11.70;7.20;;;;;;;2.89;75.17;100229.38;101826;1292;137978;-61
2022/11/01 06:28:29;;;;;;;9.70;5.60;;;;;;;2.96;75.23;100229.70;101922;1291;24293;-59
2022/11/01 06:31:00;;;;;;;15.60;6.90;;;;;;;3.00;74.88;100232.37;102006;1298;22493;-59
2022/11/01 06:33:28;;;;;;;12.60;6.70;;;;;;;3.04;74.64;100230.16;101907;1292;137517;-58
2022/11/01 06:35:54;;;;;;;13.20;7.80;;;;;;;3.05;74.33;100229.00;101771;1292;22507;-59
2022/11/01 06:38:21;;;;;;;16.80;7.10;;;;;;;3.07;74.33;100228.85;101931;1304;138142;-59
2022/11/01 06:40:48;;;;;;;14.30;7.70;;;;;;;3.10;74.23;100231.17;101889;1298;24038;-59
2022/11/01 06:43:15;;;;;;;;;;;;;;;3.13;74.13;100230.92;101742;1285;138132;-59
2022/11/01 06:45:42;;;;;;;16.90;7.30;;;;;;;3.17;73.97;100234.06;102032;1290;22687;-59
2022/11/01 06:48:09;;;;;;;17.10;9.00;;;;;;;3.19;73.97;100232.16;102139;1298;23931;-59
2022/11/01 06:50:36;;;;;;;;;;;;;;;3.23;74.09;100236.11;102154;1298;138467;-58
2022/11/01 06:53:02;;;;;;;24.60;10.80;;;;;;;3.27;74.02;100235.77;102127;1284;22497;-59
2022/11/01 06:55:29;;;;;;;24.70;10.90;;;;;;;3.30;73.99;100229.84;102223;1289;137259;-60
2022/11/01 06:57:57;;;;;;;;;;;;;;;3.32;74.04;100226.73;102356;1298;22582;-59
2022/11/01 07:00:23;;;;;;;21.20;10.90;;;;;;;3.42;73.80;100234.77;102104;1300;22636;-59
2022/11/01 07:03:04;;;;;;;21.60;9.80;;;;;;;3.46;73.81;100232.84;101801;1308;137662;-60
2022/11/01 07:05:32;;;;;;;17.40;8.60;;;;;;;3.52;73.67;100233.33;101897;1308;22483;-61
2022/11/01 07:08:04;;;;;;;21.60;9.40;;;;;;;3.56;73.47;100232.29;101992;1282;137002;-60
2022/11/01 07:10:32;;;;;;;27.60;11.20;;;;;;;3.56;73.41;100227.61;106537;1289;22241;-60
2022/11/01 07:13:02;;;;;;;;;;;;;;;3.61;73.52;100228.11;106454;1306;23270;-60
2022/11/01 07:15:29;;;;;;;23.90;10.90;;;;;;;3.69;73.89;100229.91;106483;1299;22140;-60
2022/11/01 07:17:56;;;;;;;26.70;11.90;;;;;;;3.78;73.44;100228.39;106491;1306;22127;-61
2022/11/01 07:20:24;;;;;;;24.20;11.50;;;;;;;3.86;73.48;100227.58;106383;1306;137724;-60
2022/11/01 07:22:59;;;;;;;26.90;12.10;;;;;;;3.94;73.10;100218.08;106503;1306;22386;-61
2022/11/01 07:25:26;;;;;;;37.50;17.80;;;;;;;4.02;73.02;100216.10;106463;1306;138086;-60
2022/11/01 07:27:53;;;;;;;;;;;;;;;4.12;73.15;100213.17;106620;1304;23222;-61
2022/11/01 07:30:20;;;;;;;39.90;20.20;;;;;;;4.22;73.15;100216.34;106504;1300;22320;-61
2022/11/01 07:32:46;;;;;;;;;;;;;;;4.33;73.02;100218.92;106421;1305;138581;-60
2022/11/01 07:35:14;;;;;;;18.10;10.40;;;;;;;4.43;72.70;100218.06;106456;1306;22158;-60
2022/11/01 07:37:40;;;;;;;16.40;8.60;;;;;;;4.52;72.52;100213.27;106413;1291;137795;-61
2022/11/01 07:40:08;;;;;;;19.00;7.70;;;;;;;4.61;72.18;100215.27;106504;1305;22164;-60
2022/11/01 07:42:40;;;;;;;15.50;7.40;;;;;;;4.70;71.72;100218.83;106487;1306;23287;-60
2022/11/01 07:45:08;;;;;;;15.80;7.10;;;;;;;4.78;71.20;100210.61;106365;1298;137736;-54
2022/11/01 07:47:38;;;;;;;13.40;7.00;;;;;;;4.85;70.99;100214.59;106508;1299;22272;-61
2022/11/01 07:50:05;;;;;;;18.20;9.50;;;;;;;4.94;70.66;100217.59;106421;1306;137049;-59
2022/11/01 07:52:32;;;;;;;17.90;7.40;;;;;;;5.00;70.51;100217.99;106517;1306;22110;-59
2022/11/01 07:54:59;;;;;;;;;;;;;;;5.09;70.44;100212.88;106550;1294;22381;-59
2022/11/01 07:57:26;;;;;;;17.10;6.80;;;;;;;5.20;70.64;100206.74;106418;1306;123871;-62
2022/11/01 07:59:53;;;;;;;12.70;6.40;;;;;;;5.30;70.29;100209.88;106509;1305;22841;-61
2022/11/01 08:02:19;;;;;;;19.80;7.30;;;;;;;5.41;69.83;100202.61;106420;1297;138026;-60
2022/11/01 08:04:46;;;;;;;14.60;7.70;;;;;;;5.50;69.58;100201.69;106521;1305;22113;-60
2022/11/01 08:07:13;;;;;;;13.40;6.90;;;;;;;5.59;68.98;100200.53;106110;1308;137023;-59
2022/11/01 08:09:42;;;;;;;16.60;7.10;;;;;;;5.63;68.94;100190.66;106500;1305;22293;-59
2022/11/01 08:12:09;;;;;;;30.60;10.20;;;;;;;5.76;68.40;100199.88;106460;1290;22273;-61
2022/11/01 08:14:36;;;;;;;31.80;12.10;;;;;;;5.83;67.58;100198.29;106347;1306;138665;-60
2022/11/01 08:17:03;;;;;;;51.90;24.00;;;;;;;5.85;67.23;100193.33;102836;1298;22943;-62
2022/11/01 08:19:29;;;;;;;;;;;;;;;5.94;67.20;100192.80;101823;1292;138370;-62
2022/11/01 08:21:58;;;;;;;24.70;8.80;;;;;;;6.00;67.14;100195.27;102025;1297;25481;-62
2022/11/01 08:24:25;;;;;;;22.20;8.40;;;;;;;6.07;66.86;100194.23;106600;1289;22126;-61
2022/11/01 08:26:52;;;;;;;16.40;7.60;;;;;;;6.14;66.44;100192.63;106341;1291;138461;-61
2022/11/01 08:29:19;;;;;;;;;;;;;;;6.17;66.45;100190.80;106558;1298;22365;-60
2022/11/01 08:31:46;;;;;;;42.80;10.90;;;;;;;6.24;66.65;100189.18;106384;1291;124366;-60
2022/11/01 08:34:13;;;;;;;;;;;;;;;6.31;65.95;100186.76;106483;1291;22408;-59
2022/11/01 08:36:42;;;;;;;28.90;7.90;;;;;;;6.38;64.92;100184.09;106481;1305;22814;-60
2022/11/01 08:39:09;;;;;;;45.40;10.00;;;;;;;6.46;63.99;100182.33;106369;1306;138301;-59
2022/11/01 08:41:36;;;;;;;42.30;13.00;;;;;;;6.53;63.73;100181.27;106651;1304;22153;-59
2022/11/01 08:44:03;;;;;;;32.60;9.70;;;;;;;6.61;63.45;100183.58;106383;1306;137720;-60
2022/11/01 08:46:30;;;;;;;32.60;7.50;;;;;;;6.70;63.14;100181.20;106592;1305;22148;-60
2022/11/01 08:48:59;;;;;;;24.20;5.80;;;;;;;6.79;62.50;100181.77;106482;1296;22204;-59
2022/11/01 08:51:26;;;;;;;18.40;5.10;;;;;;;6.87;62.28;100179.69;106402;1281;137434;-60
2022/11/01 08:53:56;;;;;;;6.80;3.10;;;;;;;6.93;62.29;100175.92;106496;1291;22414;-59
2022/11/01 08:56:27;;;;;;;6.70;2.60;;;;;;;6.97;62.06;100173.41;106404;1297;137402;-59
2022/11/01 08:58:53;;;;;;;6.30;2.00;;;;;;;7.09;61.75;100174.04;106607;1306;22143;-59
2022/11/01 09:01:21;;;;;;;;;;;;;;;7.15;60.91;100171.48;106376;1296;138528;-60
2022/11/01 09:03:48;;;;;;;8.70;2.30;;;;;;;7.18;60.53;100173.19;106451;1305;22251;-59
2022/11/01 09:06:15;;;;;;;5.60;2.10;;;;;;;7.21;60.48;100175.16;106466;1307;22159;-59
2022/11/01 09:08:42;;;;;;;;;;;;;;;7.24;60.45;100171.74;106448;1291;138346;-59
2022/11/01 09:11:08;;;;;;;10.60;3.00;;;;;;;7.29;60.62;100167.80;106549;1306;23087;-60
2022/11/01 09:13:35;;;;;;;9.80;2.60;;;;;;;7.35;60.38;100164.45;106481;1306;137451;-60
2022/11/01 09:16:06;;;;;;;8.70;2.50;;;;;;;7.43;60.17;100159.42;106546;1306;22226;-60
2022/11/01 09:18:33;;;;;;;9.10;3.00;;;;;;;7.52;60.30;100156.80;106670;1294;23064;-59
2022/11/01 09:21:00;;;;;;;10.10;2.80;;;;;;;7.58;59.52;100152.58;106578;1306;138508;-59
2022/11/01 09:23:26;;;;;;;;;;;;;;;7.63;59.18;100144.47;106547;1306;22415;-59
2022/11/01 09:26:00;;;;;;;12.00;2.20;;;;;;;7.70;58.72;100149.11;106414;1298;125245;-59
2022/11/01 09:28:28;;;;;;;7.80;2.20;;;;;;;7.76;58.77;100146.90;106567;1305;22156;-60
2022/11/01 09:31:06;;;;;;;8.00;2.50;;;;;;;7.83;58.64;100149.15;106556;1306;23365;-60
2022/11/01 09:33:46;;;;;;;4.40;2.30;;;;;;;7.90;58.20;100146.79;106669;1300;22187;-60
2022/11/01 09:36:13;;;;;;;4.70;1.80;;;;;;;7.95;58.07;100152.48;106434;1305;22218;-60
2022/11/01 09:38:40;;;;;;;7.80;3.50;;;;;;;8.01;57.60;100146.91;106397;1306;137638;-60
2022/11/01 09:41:10;;;;;;;;;;;;;;;8.07;57.59;100147.35;106585;1306;22384;-60
2022/11/01 09:43:37;;;;;;;6.90;2.40;;;;;;;8.12;57.29;100145.43;106445;1306;124803;-59
2022/11/01 09:46:04;;;;;;;6.30;2.30;;;;;;;8.18;57.00;100143.49;106465;1305;22198;-59
2022/11/01 09:48:31;;;;;;;6.70;2.90;;;;;;;8.23;56.75;100136.34;106444;1300;22471;-60
2022/11/01 09:51:04;;;;;;;7.10;3.10;;;;;;;8.25;56.75;100136.88;106375;1291;137948;-58
2022/11/01 09:53:31;;;;;;;11.00;3.20;;;;;;;8.29;56.64;100136.14;106412;1300;22229;-59
2022/11/01 09:56:09;;;;;;;9.20;2.80;;;;;;;8.34;56.51;100130.68;106591;1306;137991;-59
2022/11/01 09:58:51;;;;;;;6.70;3.00;;;;;;;8.40;56.57;100128.00;106448;1293;22915;-59
2022/11/01 10:01:39;;;;;;;7.20;3.00;;;;;;;8.48;56.38;100130.54;106519;1298;137681;-59
2022/11/01 10:04:13;;;;;;;10.40;3.50;;;;;;;8.56;55.47;100128.41;106530;1305;22241;-59
2022/11/01 10:06:42;;;;;;;10.50;3.30;;;;;;;8.61;55.31;100123.92;106504;1306;22155;-59
2022/11/01 10:09:24;;;;;;;14.10;3.60;;;;;;;8.64;55.26;100125.64;106294;1308;138404;-60
2022/11/01 10:12:10;;;;;;;8.10;3.10;;;;;;;8.69;55.58;100120.98;106469;1308;23485;-60
2022/11/01 10:14:40;;;;;;;11.00;3.60;;;;;;;8.75;55.50;100122.18;106465;1306;138209;-60
2022/11/01 10:17:14;;;;;;;9.40;3.30;;;;;;;8.74;54.61;100107.75;103023;1298;22600;-58
2022/11/01 10:19:47;;;;;;;9.10;3.70;;;;;;;8.88;54.33;100104.26;102302;1289;137543;-58
2022/11/01 10:22:16;;;;;;;11.40;4.00;;;;;;;8.94;54.12;100098.52;106598;1305;22242;-59
2022/11/01 10:24:48;;;;;;;8.50;3.50;;;;;;;8.96;53.87;100093.70;106619;1306;22178;-60
2022/11/01 10:27:31;;;;;;;15.40;3.90;;;;;;;8.99;52.95;100092.16;106393;1297;137603;-60
2022/11/01 10:30:12;;;;;;;7.60;3.60;;;;;;;9.04;52.43;100089.50;106640;1297;22249;-60
2022/11/01 10:32:44;;;;;;;9.90;4.80;;;;;;;9.07;52.11;100089.49;106262;1284;137665;-60
2022/11/01 10:35:19;;;;;;;7.50;3.70;;;;;;;9.11;52.23;100084.46;106532;1297;23160;-59
2022/11/01 10:37:53;;;;;;;6.70;3.10;;;;;;;9.16;51.87;100084.58;106368;1295;138687;-59
2022/11/01 10:40:42;;;;;;;9.80;3.40;;;;;;;9.19;51.66;100079.55;106449;1306;22142;-60
2022/11/01 10:43:19;;;;;;;10.30;3.80;;;;;;;9.20;51.53;100072.63;106406;1309;138041;-58
2022/11/01 10:45:46;;;;;;;8.30;4.20;;;;;;;9.10;51.45;100054.39;105292;1308;22774;-59
2022/11/01 10:48:20;;;;;;;12.70;4.10;;;;;;;9.24;51.41;100070.73;101810;1289;22631;-58
2022/11/01 10:50:47;;;;;;;8.20;3.60;;;;;;;9.27;51.24;100069.17;102055;1298;138395;-59
2022/11/01 10:53:14;;;;;;;9.00;3.60;;;;;;;9.29;51.06;100062.75;102212;1298;25329;-63
2022/11/01 10:55:55;;;;;;;12.20;3.50;;;;;;;9.31;51.81;100067.95;101806;1301;137542;-59
2022/11/01 10:58:35;;;;;;;8.30;4.20;;;;;;;9.32;51.85;100063.25;102143;1298;22483;-59
2022/11/01 11:01:02;;;;;;;6.50;3.10;;;;;;;9.34;50.34;100060.70;102127;1302;26625;-59
2022/11/01 11:03:29;;;;;;;9.50;3.30;;;;;;;9.37;49.12;100058.60;101902;1292;137056;-59
2022/11/01 11:05:58;;;;;;;7.20;4.10;;;;;;;9.39;49.15;100056.79;106484;1300;22953;-59
2022/11/01 11:08:25;;;;;;;11.10;3.40;;;;;;;9.41;49.29;100060.59;106334;1294;138522;-60
2022/11/01 11:10:52;;;;;;;;;;;;;;;9.45;49.37;100054.64;106557;1306;23203;-59
2022/11/01 11:13:20;;;;;;;6.80;3.50;;;;;;;9.48;49.86;100052.66;106393;1306;124192;-60
2022/11/01 11:16:04;;;;;;;11.00;4.10;;;;;;;9.51;50.46;100054.46;105345;1297;25187;-59
2022/11/01 11:18:32;;;;;;;8.70;3.60;;;;;;;9.55;50.49;100054.27;106597;1305;22186;-60
2022/11/01 11:21:05;;;;;;;6.60;3.40;;;;;;;9.60;50.40;100054.48;106405;1306;138442;-59
2022/11/01 11:23:35;;;;;;;9.50;3.60;;;;;;;9.64;48.90;100055.08;106532;1306;22812;-60
2022/11/01 11:26:03;;;;;;;11.20;4.70;;;;;;;9.70;48.02;100054.53;106421;1298;137099;-60
2022/11/01 11:28:32;;;;;;;9.90;3.90;;;;;;;9.76;47.31;100056.02;106452;1309;22138;-60
2022/11/01 11:31:17;;;;;;;7.70;3.50;;;;;;;9.80;47.14;100055.86;103129;1299;22540;-59
2022/11/01 11:34:19;;;;;;;6.30;3.30;;;;;;;9.84;47.18;100057.02;102200;1298;22489;-59
2022/11/01 11:36:46;;;;;;;6.00;3.70;;;;;;;9.88;47.18;100057.33;105382;1321;22228;-59
2022/11/01 11:39:36;;;;;;;14.90;4.30;;;;;;;9.91;47.67;100055.27;105727;1314;137303;-60